createdAt,value
2023-05-16T00:01:09.284Z,50.42
2023-05-16T00:03:36.953Z,50.26
2023-05-16T00:06:03.427Z,50.02
2023-05-16T00:08:29.754Z,50.29
2023-05-16T00:10:56.091Z,50.20
2023-05-16T00:13:25.064Z,50.32
2023-05-16T00:15:52.105Z,50.45
2023-05-16T00:18:19.268Z,50.24
2023-05-16T00:20:45.867Z,50.42
2023-05-16T00:23:12.897Z,50.35
2023-05-16T00:25:39.238Z,50.08
2023-05-16T00:28:05.572Z,50.27
2023-05-16T00:30:31.945Z,50.23
2023-05-16T00:32:58.319Z,50.23
2023-05-16T00:35:24.689Z,50.42
2023-05-16T00:37:51.093Z,50.28
2023-05-16T00:40:17.458Z,50.27
2023-05-16T00:42:43.799Z,50.62
2023-05-16T00:45:10.391Z,50.24
2023-05-16T00:47:36.776Z,50.40
2023-05-16T00:50:04.028Z,50.33
2023-05-16T00:52:30.959Z,50.33
2023-05-16T00:54:57.291Z,50.37
2023-05-16T00:57:23.642Z,50.26
2023-05-16T00:59:50.002Z,50.34
2023-05-16T01:02:17.227Z,50.51
2023-05-16T01:04:44.877Z,50.45
2023-05-16T01:07:11.267Z,50.44
2023-05-16T01:09:37.601Z,50.28
2023-05-16T01:12:21.131Z,50.16
2023-05-16T01:14:56.634Z,50.36
2023-05-16T01:17:23.951Z,50.36
2023-05-16T01:19:56.100Z,50.41
2023-05-16T01:22:30.562Z,50.33
2023-05-16T01:25:03.899Z,50.13
2023-05-16T01:27:30.236Z,50.60
2023-05-16T01:29:57.665Z,50.37
2023-05-16T01:32:24.603Z,50.31
2023-05-16T01:34:51.463Z,50.41
2023-05-16T01:37:19.531Z,50.25
2023-05-16T01:39:47.486Z,50.40
2023-05-16T01:42:14.347Z,50.19
2023-05-16T01:44:41.733Z,50.37
2023-05-16T01:47:09.699Z,50.15
2023-05-16T01:49:36.835Z,50.26
2023-05-16T01:52:11.232Z,50.10
2023-05-16T01:54:38.027Z,50.20
2023-05-16T01:57:04.374Z,50.22
2023-05-16T01:59:30.750Z,50.17
2023-05-16T02:01:57.110Z,50.35
2023-05-16T02:04:24.242Z,50.28
2023-05-16T02:06:51.005Z,50.19
2023-05-16T02:09:17.330Z,50.17
2023-05-16T02:11:43.654Z,50.17
2023-05-16T02:14:10.008Z,50.03
2023-05-16T02:16:37.394Z,50.30
2023-05-16T02:19:03.839Z,50.29
2023-05-16T02:21:31.190Z,49.98
2023-05-16T02:23:57.560Z,50.25
2023-05-16T02:26:26.473Z,50.05
2023-05-16T02:28:52.812Z,49.94
2023-05-16T02:31:25.552Z,50.05
2023-05-16T02:33:52.048Z,50.28
2023-05-16T02:36:18.377Z,50.19
2023-05-16T02:38:44.702Z,50.25
2023-05-16T02:41:11.030Z,49.87
2023-05-16T02:43:37.348Z,49.93
2023-05-16T02:46:19.772Z,49.95
2023-05-16T02:48:46.182Z,49.86
2023-05-16T02:51:12.506Z,50.05
2023-05-16T02:53:39.131Z,49.97
2023-05-16T02:56:06.961Z,49.97
2023-05-16T02:58:33.342Z,50.16
2023-05-16T03:00:59.756Z,50.13
2023-05-16T03:03:26.587Z,49.85
2023-05-16T03:05:53.158Z,49.84
2023-05-16T03:08:19.499Z,49.76
2023-05-16T03:10:46.174Z,49.84
2023-05-16T03:13:13.432Z,49.82
2023-05-16T03:15:39.792Z,49.67
2023-05-16T03:18:06.238Z,49.85
2023-05-16T03:20:32.681Z,49.90
2023-05-16T03:22:59.016Z,50.03
2023-05-16T03:25:25.588Z,49.62
2023-05-16T03:27:52.095Z,49.99
2023-05-16T03:30:19.390Z,49.91
2023-05-16T03:32:45.962Z,49.82
2023-05-16T03:35:12.413Z,49.73
2023-05-16T03:37:38.976Z,49.70
2023-05-16T03:40:05.829Z,49.74
2023-05-16T03:42:32.462Z,49.69
2023-05-16T03:44:58.809Z,49.74
2023-05-16T03:47:25.285Z,49.96
2023-05-16T03:49:51.651Z,49.87
2023-05-16T03:52:17.996Z,49.71
2023-05-16T03:54:44.463Z,49.89
2023-05-16T03:57:10.893Z,49.75
2023-05-16T03:59:39.001Z,49.61
2023-05-16T04:02:05.878Z,49.70
2023-05-16T04:04:32.251Z,49.81
2023-05-16T04:06:58.591Z,49.77
2023-05-16T04:09:24.919Z,49.67
2023-05-16T04:11:51.691Z,49.56
2023-05-16T04:14:18.054Z,49.71
2023-05-16T04:16:44.601Z,49.83
2023-05-16T04:19:10.997Z,49.86
2023-05-16T04:21:37.380Z,49.79
2023-05-16T04:24:03.703Z,49.62
2023-05-16T04:26:30.154Z,49.46
2023-05-16T04:28:56.950Z,49.61
2023-05-16T04:31:23.344Z,49.59
2023-05-16T04:33:49.732Z,49.54
2023-05-16T04:36:16.072Z,49.61
2023-05-16T04:38:42.901Z,49.51
2023-05-16T04:41:09.230Z,49.75
2023-05-16T04:43:35.825Z,49.72
2023-05-16T04:46:02.291Z,49.72
2023-05-16T04:48:28.646Z,49.71
2023-05-16T04:50:55.489Z,49.76
2023-05-16T04:53:21.832Z,49.56
2023-05-16T04:55:48.155Z,49.43
2023-05-16T04:58:14.504Z,49.59
2023-05-16T05:00:41.376Z,49.58
2023-05-16T05:03:07.850Z,49.40
2023-05-16T05:05:34.384Z,49.61
2023-05-16T05:08:01.480Z,49.49
2023-05-16T05:10:27.823Z,49.81
2023-05-16T05:12:54.197Z,49.02
2023-05-16T05:15:20.601Z,50.45
2023-05-16T05:17:47.110Z,49.32
2023-05-16T05:20:13.460Z,48.82
2023-05-16T05:22:39.795Z,48.86
2023-05-16T05:25:06.180Z,48.64
2023-05-16T05:27:32.512Z,48.79
2023-05-16T05:29:58.843Z,48.81
2023-05-16T05:32:25.380Z,48.87
2023-05-16T05:34:52.605Z,49.29
2023-05-16T05:37:18.962Z,49.61
2023-05-16T05:39:45.357Z,49.40
2023-05-16T05:42:12.130Z,49.24
2023-05-16T05:44:38.500Z,49.18
2023-05-16T05:47:05.810Z,49.41
2023-05-16T05:49:32.150Z,49.14
2023-05-16T05:51:58.479Z,49.11
2023-05-16T05:54:24.896Z,49.20
2023-05-16T05:56:51.253Z,49.18
2023-05-16T05:59:17.595Z,49.09
2023-05-16T06:01:44.558Z,49.25
2023-05-16T06:04:11.209Z,49.21
2023-05-16T06:06:37.707Z,49.21
2023-05-16T06:09:04.047Z,51.29
2023-05-16T06:11:30.398Z,50.96
2023-05-16T06:13:56.733Z,50.52
2023-05-16T06:16:25.944Z,50.13
2023-05-16T06:18:52.385Z,49.50
2023-05-16T06:21:18.817Z,49.62
2023-05-16T06:23:45.157Z,49.22
2023-05-16T06:26:11.551Z,49.32
2023-05-16T06:28:37.865Z,49.16
2023-05-16T06:31:04.219Z,48.50
2023-05-16T06:33:30.626Z,48.08
2023-05-16T06:35:56.966Z,47.71
2023-05-16T06:38:23.300Z,47.43
2023-05-16T06:40:49.654Z,47.14
2023-05-16T06:43:16.121Z,46.67
2023-05-16T06:45:42.494Z,46.77
2023-05-16T06:48:08.959Z,46.12
2023-05-16T06:50:35.610Z,45.88
2023-05-16T06:53:02.310Z,46.68
2023-05-16T06:55:29.023Z,46.83
2023-05-16T06:57:55.614Z,46.14
2023-05-16T07:00:22.024Z,46.36
2023-05-16T07:02:48.437Z,46.39
2023-05-16T07:05:14.850Z,46.63
2023-05-16T07:07:41.219Z,46.67
2023-05-16T07:10:07.770Z,46.86
2023-05-16T07:12:35.457Z,46.54
2023-05-16T07:15:01.865Z,47.04
2023-05-16T07:17:28.341Z,46.65
2023-05-16T07:19:54.736Z,46.61
2023-05-16T07:22:21.119Z,47.15
2023-05-16T07:24:47.542Z,46.79
2023-05-16T07:27:13.925Z,47.11
2023-05-16T07:29:40.950Z,47.27
2023-05-16T07:32:07.630Z,47.61
2023-05-16T07:34:34.169Z,47.45
2023-05-16T07:37:00.687Z,47.37
2023-05-16T07:39:27.070Z,47.63
2023-05-16T07:41:53.447Z,47.69
2023-05-16T07:44:19.842Z,47.51
2023-05-16T07:46:46.362Z,48.37
2023-05-16T07:49:12.754Z,47.58
2023-05-16T07:51:39.180Z,47.47
2023-05-16T07:54:05.820Z,47.73
2023-05-16T07:56:32.791Z,47.03
2023-05-16T07:58:59.397Z,47.42
2023-05-16T08:01:26.244Z,47.11
2023-05-16T08:03:53.684Z,47.03
2023-05-16T08:06:20.156Z,46.65
2023-05-16T08:08:46.551Z,46.71
2023-05-16T08:11:12.936Z,47.71
2023-05-16T08:13:39.334Z,47.11
2023-05-16T08:16:05.920Z,47.34
2023-05-16T08:18:32.411Z,47.41
2023-05-16T08:20:59.157Z,47.76
2023-05-16T08:23:25.833Z,47.42
2023-05-16T08:25:54.606Z,47.51
2023-05-16T08:28:21.279Z,47.41
2023-05-16T08:30:48.136Z,46.87
2023-05-16T08:33:14.671Z,46.54
2023-05-16T08:35:44.148Z,47.39
2023-05-16T08:38:10.717Z,47.37
2023-05-16T08:40:37.098Z,46.41
2023-05-16T08:43:03.508Z,47.69
2023-05-16T08:45:30.301Z,47.33
2023-05-16T08:47:57.012Z,47.33
2023-05-16T08:50:24.020Z,47.49
2023-05-16T08:52:51.528Z,47.50
2023-05-16T08:55:17.915Z,47.65
2023-05-16T08:57:44.442Z,47.65
2023-05-16T09:00:13.854Z,47.43
2023-05-16T09:02:41.081Z,47.50
2023-05-16T09:05:09.072Z,47.51
2023-05-16T09:07:35.489Z,47.60
2023-05-16T09:10:01.893Z,47.47
2023-05-16T09:12:28.282Z,47.77
2023-05-16T09:14:56.177Z,46.34
2023-05-16T09:17:36.072Z,45.72
2023-05-16T09:20:10.527Z,45.30
2023-05-16T09:22:37.282Z,45.84
2023-05-16T09:25:06.897Z,47.21
2023-05-16T09:27:34.954Z,47.36
2023-05-16T09:30:01.395Z,47.02
2023-05-16T09:32:28.879Z,46.36
2023-05-16T09:34:57.756Z,46.59
2023-05-16T09:37:24.118Z,46.19
2023-05-16T09:39:51.402Z,46.09
2023-05-16T09:42:18.060Z,46.17
2023-05-16T09:44:50.922Z,46.08
2023-05-16T09:47:17.771Z,45.96
2023-05-16T09:49:44.435Z,46.65
2023-05-16T09:52:10.836Z,46.18
2023-05-16T09:54:37.271Z,46.28
2023-05-16T09:57:03.673Z,45.94
2023-05-16T09:59:30.475Z,45.79
2023-05-16T10:02:00.480Z,46.13
2023-05-16T10:04:26.956Z,46.06
2023-05-16T10:06:54.859Z,46.25
2023-05-16T10:09:21.276Z,46.35
2023-05-16T10:11:47.681Z,46.08
2023-05-16T10:14:14.113Z,46.21
2023-05-16T10:16:41.923Z,46.12
2023-05-16T10:19:08.472Z,46.15
2023-05-16T10:21:35.644Z,46.54
2023-05-16T10:24:03.624Z,46.41
2023-05-16T10:26:30.291Z,46.61
2023-05-16T10:28:56.658Z,47.11
2023-05-16T10:31:23.225Z,47.00
2023-05-16T10:33:50.392Z,46.67
2023-05-16T10:36:16.852Z,46.65
2023-05-16T10:38:43.286Z,46.52
2023-05-16T10:41:09.691Z,47.08
2023-05-16T10:43:36.657Z,46.60
2023-05-16T10:46:03.895Z,46.65
2023-05-16T10:48:34.413Z,46.66
2023-05-16T10:51:02.752Z,46.94
2023-05-16T10:53:29.056Z,46.73
2023-05-16T10:56:01.340Z,46.74
2023-05-16T10:58:35.023Z,46.40
2023-05-16T11:01:23.987Z,46.72
2023-05-16T11:04:02.642Z,47.16
2023-05-16T11:06:29.191Z,47.56
2023-05-16T11:09:05.785Z,47.64
2023-05-16T11:11:38.815Z,47.85
2023-05-16T11:14:05.353Z,46.79
2023-05-16T11:16:31.784Z,46.91
2023-05-16T11:19:05.006Z,46.84
2023-05-16T11:21:50.395Z,46.80
2023-05-16T11:24:31.749Z,47.07
2023-05-16T11:26:59.132Z,47.49
2023-05-16T11:29:26.314Z,47.99
2023-05-16T11:31:52.922Z,48.75
2023-05-16T11:34:19.377Z,47.99
2023-05-16T11:36:46.284Z,48.44
2023-05-16T11:39:12.676Z,47.89
2023-05-16T11:41:39.144Z,47.70
2023-05-16T11:44:06.628Z,47.99
2023-05-16T11:46:33.501Z,47.87
2023-05-16T11:48:59.919Z,47.66
2023-05-16T11:51:26.662Z,47.45
2023-05-16T11:53:53.194Z,47.44
2023-05-16T11:56:21.613Z,47.35
2023-05-16T11:58:48.150Z,48.45
2023-05-16T12:01:14.921Z,47.03
2023-05-16T12:03:41.482Z,47.05
2023-05-16T12:06:08.026Z,47.15
2023-05-16T12:08:34.922Z,47.42
2023-05-16T12:11:01.320Z,46.75
2023-05-16T12:13:27.719Z,46.84
2023-05-16T12:15:54.104Z,46.57
2023-05-16T12:18:21.884Z,46.46
2023-05-16T12:20:48.440Z,46.65
2023-05-16T12:23:14.827Z,47.10
2023-05-16T12:25:46.219Z,46.75
2023-05-16T12:28:13.014Z,46.77
2023-05-16T12:30:46.027Z,47.20
2023-05-16T12:33:13.923Z,47.38
2023-05-16T12:35:41.076Z,47.73
2023-05-16T12:38:10.734Z,46.97
2023-05-16T12:40:37.269Z,46.64
2023-05-16T12:43:03.656Z,46.48
2023-05-16T12:45:30.055Z,46.63
2023-05-16T12:47:56.528Z,46.74
2023-05-16T12:50:23.077Z,47.18
2023-05-16T12:52:53.221Z,46.65
2023-05-16T12:55:20.343Z,46.70
2023-05-16T12:57:47.857Z,46.36
2023-05-16T13:00:14.775Z,46.57
2023-05-16T13:02:41.356Z,46.50
2023-05-16T13:05:07.902Z,46.96
2023-05-16T13:07:34.589Z,46.38
2023-05-16T13:10:00.985Z,47.35
2023-05-16T13:12:27.591Z,46.89
2023-05-16T13:14:54.416Z,47.89
2023-05-16T13:17:21.042Z,47.73
2023-05-16T13:19:48.947Z,47.80
2023-05-16T13:22:15.576Z,46.77
2023-05-16T13:24:41.957Z,46.92
2023-05-16T13:27:08.399Z,46.26
2023-05-16T13:29:34.933Z,46.43
2023-05-16T13:32:01.469Z,46.45
2023-05-16T13:34:28.162Z,46.58
2023-05-16T13:36:55.200Z,46.45
2023-05-16T13:39:22.262Z,46.34
2023-05-16T13:41:49.115Z,46.31
2023-05-16T13:44:16.164Z,46.52
2023-05-16T13:46:42.630Z,46.25
2023-05-16T13:49:09.017Z,46.16
2023-05-16T13:51:35.405Z,46.22
2023-05-16T13:54:01.793Z,46.16
2023-05-16T13:56:28.186Z,46.76
2023-05-16T13:59:03.874Z,46.67
2023-05-16T14:01:32.592Z,46.71
2023-05-16T14:03:59.086Z,46.65
2023-05-16T14:06:25.529Z,45.96
2023-05-16T14:08:52.004Z,46.31
2023-05-16T14:11:19.886Z,46.23
2023-05-16T14:13:46.593Z,46.09
2023-05-16T14:16:13.038Z,46.17
2023-05-16T14:18:39.533Z,46.01
2023-05-16T14:21:05.985Z,46.05
2023-05-16T14:23:32.388Z,46.04
2023-05-16T14:25:58.784Z,46.14
2023-05-16T14:28:25.182Z,46.63
2023-05-16T14:30:51.562Z,46.22
2023-05-16T14:33:18.044Z,46.58
2023-05-16T14:35:44.518Z,46.87
2023-05-16T14:38:10.929Z,47.38
2023-05-16T14:40:37.322Z,46.99
2023-05-16T14:43:07.510Z,46.81
2023-05-16T14:45:36.502Z,46.46
2023-05-16T14:48:02.958Z,46.37
2023-05-16T14:50:29.397Z,46.31
2023-05-16T14:52:55.831Z,46.42
2023-05-16T14:55:22.800Z,45.96
2023-05-16T14:57:52.440Z,46.02
2023-05-16T15:00:24.597Z,45.99
2023-05-16T15:02:51.145Z,45.58
2023-05-16T15:05:17.603Z,45.61
2023-05-16T15:07:44.174Z,45.46
2023-05-16T15:10:10.613Z,45.44
2023-05-16T15:12:37.040Z,45.61
2023-05-16T15:15:04.137Z,45.63
2023-05-16T15:17:30.568Z,45.37
2023-05-16T15:19:57.769Z,45.69
2023-05-16T15:22:24.193Z,46.12
2023-05-16T15:24:50.614Z,45.81
2023-05-16T15:27:17.016Z,46.08
2023-05-16T15:29:43.373Z,46.06
2023-05-16T15:32:11.299Z,46.04
2023-05-16T15:34:38.381Z,45.92
2023-05-16T15:37:04.853Z,46.18
2023-05-16T15:39:31.559Z,46.13
2023-05-16T15:42:10.000Z,46.33
2023-05-16T15:44:37.376Z,46.55
2023-05-16T15:47:03.777Z,46.20
2023-05-16T15:49:30.164Z,46.30
2023-05-16T15:51:56.572Z,46.21
2023-05-16T15:54:22.961Z,46.42
2023-05-16T15:56:49.366Z,46.45
2023-05-16T15:59:16.015Z,46.31
2023-05-16T16:01:42.552Z,46.32
2023-05-16T16:04:09.003Z,46.40
2023-05-16T16:06:35.450Z,46.42
2023-05-16T16:09:01.831Z,46.37
2023-05-16T16:11:28.386Z,46.39
2023-05-16T16:13:54.817Z,46.50
2023-05-16T16:16:21.284Z,46.41
2023-05-16T16:18:47.944Z,46.70
2023-05-16T16:21:14.427Z,46.41
2023-05-16T16:23:42.034Z,46.73
2023-05-16T16:26:08.459Z,46.65
2023-05-16T16:28:34.830Z,46.52
2023-05-16T16:31:01.286Z,46.42
2023-05-16T16:33:27.905Z,46.72
2023-05-16T16:35:55.569Z,46.75
2023-05-16T16:38:22.001Z,46.56
2023-05-16T16:40:48.398Z,46.78
2023-05-16T16:43:14.787Z,46.60
2023-05-16T16:45:41.170Z,46.64
2023-05-16T16:48:09.230Z,46.79
2023-05-16T16:50:35.695Z,46.69
2023-05-16T16:53:04.211Z,46.90
2023-05-16T16:55:31.019Z,46.63
2023-05-16T16:57:57.698Z,46.50
2023-05-16T17:00:26.974Z,46.75
2023-05-16T17:02:53.515Z,46.79
2023-05-16T17:05:20.108Z,46.76
2023-05-16T17:07:46.503Z,46.63
2023-05-16T17:10:13.026Z,46.80
2023-05-16T17:12:46.836Z,46.71
2023-05-16T17:15:13.242Z,46.71
2023-05-16T17:17:39.748Z,46.74
2023-05-16T17:20:07.332Z,46.82
2023-05-16T17:22:33.978Z,46.64
2023-05-16T17:25:00.389Z,46.63
2023-05-16T17:27:26.786Z,46.93
2023-05-16T17:29:53.173Z,46.39
2023-05-16T17:32:21.344Z,43.51
2023-05-16T17:34:48.216Z,39.28
2023-05-16T17:37:14.607Z,39.57
2023-05-16T17:39:40.999Z,38.87
2023-05-16T17:42:07.589Z,40.18
2023-05-16T17:44:34.032Z,40.74
2023-05-16T17:47:00.483Z,42.91
2023-05-16T17:49:26.964Z,43.73
2023-05-16T17:51:53.622Z,43.29
2023-05-16T17:54:20.271Z,44.65
2023-05-16T17:56:46.751Z,44.01
2023-05-16T17:59:13.456Z,43.42
2023-05-16T18:01:40.028Z,43.33
2023-05-16T18:04:09.311Z,43.09
2023-05-16T18:06:36.954Z,43.97
2023-05-16T18:09:06.438Z,40.09
2023-05-16T18:11:36.112Z,40.21
2023-05-16T18:14:02.509Z,39.56
2023-05-16T18:16:29.504Z,40.31
2023-05-16T18:18:56.054Z,40.70
2023-05-16T18:21:22.495Z,41.38
2023-05-16T18:23:48.872Z,41.56
2023-05-16T18:26:15.341Z,41.76
2023-05-16T18:28:43.380Z,42.05
2023-05-16T18:31:09.785Z,43.34
2023-05-16T18:33:36.216Z,43.42
2023-05-16T18:36:02.777Z,43.69
2023-05-16T18:38:33.107Z,43.91
2023-05-16T18:40:59.800Z,43.49
2023-05-16T18:43:26.267Z,43.13
2023-05-16T18:45:52.679Z,43.91
2023-05-16T18:48:19.341Z,44.14
2023-05-16T18:50:46.010Z,44.12
2023-05-16T18:53:12.426Z,44.36
2023-05-16T18:55:38.830Z,44.50
2023-05-16T18:58:05.435Z,44.74
2023-05-16T19:00:31.849Z,44.29
2023-05-16T19:02:58.268Z,44.32
2023-05-16T19:05:24.938Z,44.27
2023-05-16T19:07:51.482Z,43.99
2023-05-16T19:10:18.063Z,43.79
2023-05-16T19:12:46.819Z,43.62
2023-05-16T19:15:13.284Z,44.23
2023-05-16T19:17:41.702Z,44.58
2023-05-16T19:20:09.366Z,44.69
2023-05-16T19:22:36.039Z,44.97
2023-05-16T19:25:02.771Z,44.78
2023-05-16T19:27:29.198Z,44.94
2023-05-16T19:29:55.630Z,45.29
2023-05-16T19:32:22.361Z,45.09
2023-05-16T19:34:48.921Z,45.04
2023-05-16T19:37:15.372Z,44.63
2023-05-16T19:39:41.802Z,44.32
2023-05-16T19:42:08.237Z,44.11
2023-05-16T19:44:34.809Z,44.01
2023-05-16T19:47:01.298Z,44.65
2023-05-16T19:49:28.780Z,44.73
2023-05-16T19:51:55.399Z,44.38
2023-05-16T19:54:21.903Z,44.49
2023-05-16T19:56:48.365Z,45.45
2023-05-16T19:59:14.806Z,44.54
2023-05-16T20:04:12.718Z,45.59
2023-05-16T20:06:39.440Z,45.49
2023-05-16T20:09:06.256Z,45.42
2023-05-16T20:11:32.771Z,45.30
2023-05-16T20:14:00.154Z,45.48
2023-05-16T20:16:27.100Z,45.55
2023-05-16T20:18:53.652Z,46.17
2023-05-16T20:21:20.290Z,46.27
2023-05-16T20:23:46.688Z,45.96
2023-05-16T20:26:14.972Z,46.95
2023-05-16T20:28:41.603Z,46.78
2023-05-16T20:31:08.044Z,47.21
2023-05-16T20:33:34.516Z,47.09
2023-05-16T20:36:00.960Z,46.79
2023-05-16T20:38:27.348Z,46.50
2023-05-16T20:40:53.847Z,46.23
2023-05-16T20:43:20.237Z,46.14
2023-05-16T20:45:46.665Z,45.72
2023-05-16T20:48:14.018Z,45.66
2023-05-16T20:50:40.632Z,45.82
2023-05-16T20:53:07.063Z,45.95
2023-05-16T20:55:33.466Z,46.14
2023-05-16T20:58:00.581Z,46.19
2023-05-16T21:00:26.985Z,45.91
2023-05-16T21:02:53.428Z,45.87
2023-05-16T21:05:25.564Z,46.09
2023-05-16T21:07:52.711Z,45.54
2023-05-16T21:10:19.092Z,45.71
2023-05-16T21:12:45.577Z,45.67
2023-05-16T21:15:11.986Z,45.69
2023-05-16T21:17:39.470Z,46.04
2023-05-16T21:20:06.265Z,45.99
2023-05-16T21:22:32.665Z,45.96
2023-05-16T21:24:59.049Z,45.93
2023-05-16T21:27:25.435Z,45.94
2023-05-16T21:29:51.835Z,46.12
2023-05-16T21:32:18.239Z,45.95
2023-05-16T21:34:44.769Z,45.82
2023-05-16T21:37:11.829Z,45.96
2023-05-16T21:39:38.286Z,46.12
2023-05-16T21:42:04.788Z,45.93
2023-05-16T21:44:31.693Z,45.77
2023-05-16T21:46:58.157Z,45.87
2023-05-16T21:49:24.605Z,45.97
2023-05-16T21:51:51.187Z,45.84
2023-05-16T21:54:17.701Z,46.17
2023-05-16T21:56:44.092Z,45.94
2023-05-16T21:59:10.495Z,46.20
2023-05-16T22:01:36.889Z,45.87
2023-05-16T22:04:03.468Z,46.09
2023-05-16T22:06:31.167Z,45.96
2023-05-16T22:08:58.018Z,45.95
2023-05-16T22:11:24.441Z,46.31
2023-05-16T22:13:51.313Z,46.07
2023-05-16T22:16:17.830Z,46.30
2023-05-16T22:18:45.277Z,46.11
2023-05-16T22:21:11.955Z,46.29
2023-05-16T22:23:38.371Z,46.12
2023-05-16T22:26:04.747Z,46.19
2023-05-16T22:28:31.122Z,45.97
2023-05-16T22:30:57.604Z,46.00
2023-05-16T22:33:24.154Z,46.23
2023-05-16T22:35:50.804Z,45.94
2023-05-16T22:38:17.258Z,46.22
2023-05-16T22:40:43.679Z,46.20
2023-05-16T22:43:10.120Z,46.31
2023-05-16T22:45:36.522Z,46.04
2023-05-16T22:48:03.021Z,46.34
2023-05-16T22:50:29.473Z,46.04
2023-05-16T22:52:55.921Z,46.34
2023-05-16T22:55:22.307Z,46.37
2023-05-16T22:57:48.721Z,46.24
2023-05-16T23:00:17.867Z,46.25
2023-05-16T23:02:44.327Z,46.01
2023-05-16T23:05:10.749Z,46.10
2023-05-16T23:07:37.148Z,46.30
2023-05-16T23:10:04.082Z,46.28
2023-05-16T23:12:30.468Z,46.44
2023-05-16T23:14:58.072Z,46.65
2023-05-16T23:17:24.501Z,46.50
2023-05-16T23:19:51.016Z,46.84
2023-05-16T23:22:17.416Z,46.98
2023-05-16T23:24:43.800Z,46.92
2023-05-16T23:27:10.232Z,46.92
2023-05-16T23:29:36.907Z,46.91
2023-05-16T23:32:03.292Z,46.64
2023-05-16T23:34:29.664Z,46.87
2023-05-16T23:36:56.148Z,46.77
2023-05-16T23:39:22.555Z,46.89
2023-05-16T23:41:48.941Z,46.78
2023-05-16T23:44:15.312Z,46.50
2023-05-16T23:46:41.701Z,46.50
2023-05-16T23:49:08.093Z,46.76
2023-05-16T23:51:52.319Z,46.68
2023-05-16T23:54:21.405Z,46.53
2023-05-16T23:56:47.814Z,46.74
2023-05-16T23:59:16.194Z,46.53
